createdAt,value
2022-08-28T00:00:41.808Z,15.19
2022-08-28T00:03:10.625Z,15.16
2022-08-28T00:05:39.764Z,15.20
2022-08-28T00:08:08.374Z,15.29
2022-08-28T00:10:39.984Z,15.34
2022-08-28T00:13:08.648Z,15.16
2022-08-28T00:15:38.046Z,15.14
2022-08-28T00:18:07.140Z,15.11
2022-08-28T00:20:36.821Z,15.15
2022-08-28T00:23:05.889Z,15.26
2022-08-28T00:25:34.117Z,15.18
2022-08-28T00:28:09.027Z,15.09
2022-08-28T00:30:43.342Z,15.01
2022-08-28T00:33:23.038Z,14.90
2022-08-28T00:35:51.018Z,14.87
2022-08-28T00:38:19.975Z,14.81
2022-08-28T00:40:49.694Z,14.77
2022-08-28T00:43:42.259Z,14.70
2022-08-28T00:46:13.173Z,14.68
2022-08-28T00:48:40.344Z,14.68
2022-08-28T00:51:26.581Z,14.68
2022-08-28T00:53:58.939Z,14.61
2022-08-28T00:56:27.889Z,14.65
2022-08-28T00:58:59.573Z,14.61
2022-08-28T01:01:27.721Z,14.61
2022-08-28T01:03:54.735Z,14.47
2022-08-28T01:06:21.784Z,14.42
2022-08-28T01:08:50.595Z,14.41
2022-08-28T01:11:18.761Z,14.54
2022-08-28T01:13:48.489Z,14.41
2022-08-28T01:16:18.791Z,14.22
2022-08-28T01:18:46.831Z,14.11
2022-08-28T01:21:30.952Z,14.03
2022-08-28T01:24:02.581Z,13.95
2022-08-28T01:26:29.852Z,14.02
2022-08-28T01:28:58.469Z,13.98
2022-08-28T01:31:27.223Z,14.02
2022-08-28T01:33:54.657Z,13.85
2022-08-28T01:36:21.659Z,13.81
2022-08-28T01:38:52.966Z,13.75
2022-08-28T01:41:22.663Z,13.69
2022-08-28T01:43:49.358Z,13.80
2022-08-28T01:46:17.449Z,13.64
2022-08-28T01:48:44.824Z,13.73
2022-08-28T01:51:14.587Z,13.83
2022-08-28T01:53:45.006Z,13.82
2022-08-28T01:56:17.355Z,13.61
2022-08-28T01:58:44.559Z,13.56
2022-08-28T02:01:18.562Z,13.47
2022-08-28T02:03:46.374Z,13.38
2022-08-28T02:06:14.185Z,13.27
2022-08-28T02:08:45.324Z,13.18
2022-08-28T02:11:12.913Z,13.28
2022-08-28T02:13:40.777Z,13.26
2022-08-28T02:16:10.386Z,13.22
2022-08-28T02:18:41.023Z,13.08
2022-08-28T02:21:09.277Z,13.22
2022-08-28T02:23:39.624Z,13.12
2022-08-28T02:26:07.447Z,13.03
2022-08-28T02:28:37.525Z,13.10
2022-08-28T02:31:08.436Z,13.05
2022-08-28T02:33:50.130Z,13.03
2022-08-28T02:36:19.975Z,12.95
2022-08-28T02:38:47.708Z,12.97
2022-08-28T02:41:15.805Z,12.97
2022-08-28T02:43:42.982Z,13.02
2022-08-28T02:46:10.219Z,12.94
2022-08-28T02:48:39.414Z,12.90
2022-08-28T02:51:11.225Z,12.81
2022-08-28T02:53:41.451Z,12.95
2022-08-28T02:56:08.922Z,12.82
2022-08-28T02:58:39.970Z,12.81
2022-08-28T03:01:10.000Z,12.90
2022-08-28T03:03:38.090Z,12.94
2022-08-28T03:06:08.352Z,13.17
2022-08-28T03:08:35.206Z,13.10
2022-08-28T03:11:01.976Z,12.98
2022-08-28T03:13:28.943Z,12.88
2022-08-28T03:15:57.018Z,12.79
2022-08-28T03:18:26.429Z,12.86
2022-08-28T03:20:57.313Z,12.81
2022-08-28T03:23:26.863Z,12.88
2022-08-28T03:25:53.970Z,12.89
2022-08-28T03:28:20.782Z,12.98
2022-08-28T03:30:48.278Z,12.95
2022-08-28T03:33:15.541Z,12.90
2022-08-28T03:35:42.488Z,12.95
2022-08-28T03:38:11.886Z,12.86
2022-08-28T03:40:43.032Z,12.87
2022-08-28T03:43:18.003Z,12.87
2022-08-28T03:45:58.183Z,12.81
2022-08-28T03:48:28.361Z,12.88
2022-08-28T03:50:56.058Z,12.78
2022-08-28T03:53:25.453Z,12.73
2022-08-28T03:55:52.816Z,12.64
2022-08-28T03:58:20.030Z,12.71
2022-08-28T04:00:47.014Z,12.66
2022-08-28T04:03:14.354Z,12.60
2022-08-28T04:05:42.652Z,12.54
2022-08-28T04:08:12.881Z,12.45
2022-08-28T04:10:40.263Z,12.48
2022-08-28T04:13:07.037Z,12.55
2022-08-28T04:15:33.736Z,12.50
2022-08-28T04:18:01.101Z,12.53
2022-08-28T04:20:28.428Z,12.58
2022-08-28T04:22:55.707Z,12.46
2022-08-28T04:25:23.038Z,12.35
2022-08-28T04:27:51.088Z,12.28
2022-08-28T04:30:18.831Z,12.36
2022-08-28T04:32:45.683Z,12.32
2022-08-28T04:35:13.885Z,12.32
2022-08-28T04:37:41.556Z,12.38
2022-08-28T04:40:10.925Z,12.38
2022-08-28T04:42:38.874Z,12.37
2022-08-28T04:45:06.590Z,12.26
2022-08-28T04:47:37.114Z,12.33
2022-08-28T04:50:05.269Z,12.36
2022-08-28T04:52:32.167Z,12.34
2022-08-28T04:54:59.208Z,12.24
2022-08-28T04:57:26.245Z,12.43
2022-08-28T04:59:53.021Z,12.43
2022-08-28T05:02:20.031Z,12.38
2022-08-28T05:04:47.426Z,12.44
2022-08-28T05:07:14.527Z,12.43
2022-08-28T05:09:41.398Z,12.43
2022-08-28T05:12:08.211Z,12.53
2022-08-28T05:14:36.582Z,12.44
2022-08-28T05:17:03.740Z,12.38
2022-08-28T05:19:32.969Z,12.49
2022-08-28T05:21:59.658Z,12.62
2022-08-28T05:24:26.363Z,12.97
2022-08-28T05:26:53.057Z,13.81
2022-08-28T05:29:20.404Z,14.32
2022-08-28T05:31:49.390Z,14.79
2022-08-28T05:34:16.866Z,15.10
2022-08-28T05:36:43.885Z,15.37
2022-08-28T05:39:12.779Z,15.49
2022-08-28T05:41:41.807Z,15.30
2022-08-28T05:44:11.711Z,14.84
2022-08-28T05:46:41.438Z,14.53
2022-08-28T05:49:10.210Z,14.10
2022-08-28T05:51:41.218Z,13.87
2022-08-28T05:54:11.801Z,13.75
2022-08-28T05:56:40.613Z,13.77
2022-08-28T05:59:09.541Z,13.87
2022-08-28T06:01:40.560Z,13.94
2022-08-28T06:04:13.457Z,13.89
2022-08-28T06:06:41.418Z,14.00
2022-08-28T06:09:14.341Z,14.14
2022-08-28T06:11:44.857Z,14.45
2022-08-28T06:14:17.986Z,15.39
2022-08-28T06:16:47.479Z,16.04
2022-08-28T06:19:16.894Z,16.65
2022-08-28T06:21:44.614Z,17.32
2022-08-28T06:24:12.291Z,17.73
2022-08-28T06:26:39.587Z,18.11
2022-08-28T06:29:10.110Z,18.36
2022-08-28T06:31:37.451Z,18.51
2022-08-28T06:34:04.833Z,18.68
2022-08-28T06:36:33.905Z,18.93
2022-08-28T06:39:02.642Z,19.20
2022-08-28T06:41:32.255Z,18.24
2022-08-28T06:43:59.362Z,17.03
2022-08-28T06:46:27.348Z,16.35
2022-08-28T06:48:54.356Z,16.17
2022-08-28T06:51:23.151Z,16.05
2022-08-28T06:53:51.905Z,15.89
2022-08-28T06:56:26.490Z,16.18
2022-08-28T06:58:56.676Z,16.09
2022-08-28T07:01:29.257Z,16.03
2022-08-28T07:04:04.993Z,16.05
2022-08-28T07:06:35.045Z,16.09
2022-08-28T07:09:03.853Z,16.16
2022-08-28T07:11:33.713Z,16.25
2022-08-28T07:14:00.996Z,16.40
2022-08-28T07:16:31.088Z,16.42
2022-08-28T07:18:59.114Z,16.70
2022-08-28T07:21:26.631Z,17.44
2022-08-28T07:23:55.013Z,18.79
2022-08-28T07:26:24.197Z,19.53
2022-08-28T07:29:09.571Z,20.03
2022-08-28T07:31:45.943Z,20.26
2022-08-28T07:34:15.724Z,20.22
2022-08-28T07:36:43.304Z,20.28
2022-08-28T07:39:11.907Z,19.77
2022-08-28T07:41:42.332Z,19.26
2022-08-28T07:44:29.570Z,18.66
2022-08-28T07:46:59.388Z,18.18
2022-08-28T07:49:27.321Z,18.82
2022-08-28T07:51:54.592Z,18.82
2022-08-28T07:54:22.721Z,18.94
2022-08-28T07:56:50.084Z,18.60
2022-08-28T07:59:19.161Z,18.78
2022-08-28T08:01:48.279Z,18.90
2022-08-28T08:04:18.399Z,19.06
2022-08-28T08:06:45.323Z,18.98
2022-08-28T08:09:14.712Z,19.15
2022-08-28T08:11:42.733Z,19.31
2022-08-28T08:14:10.269Z,19.60
2022-08-28T08:16:39.887Z,19.49
2022-08-28T08:19:10.182Z,19.48
2022-08-28T08:21:37.619Z,19.62
2022-08-28T08:24:04.706Z,19.73
2022-08-28T08:26:31.893Z,19.77
2022-08-28T08:28:59.580Z,19.40
2022-08-28T08:31:30.520Z,19.34
2022-08-28T08:34:01.860Z,18.98
2022-08-28T08:36:30.205Z,19.08
2022-08-28T08:38:59.655Z,19.04
2022-08-28T08:41:39.107Z,19.45
2022-08-28T08:44:23.763Z,19.51
2022-08-28T08:47:10.650Z,19.73
2022-08-28T08:49:48.050Z,19.60
2022-08-28T08:52:27.386Z,19.88
2022-08-28T08:55:04.531Z,19.77
2022-08-28T08:57:32.417Z,19.89
2022-08-28T08:59:59.658Z,19.98
2022-08-28T09:02:32.484Z,20.20
2022-08-28T09:05:04.967Z,20.19
2022-08-28T09:07:35.586Z,20.08
2022-08-28T09:10:02.225Z,19.98
2022-08-28T09:12:30.969Z,20.12
2022-08-28T09:15:14.549Z,20.15
2022-08-28T09:17:50.668Z,20.36
2022-08-28T09:20:29.135Z,20.59
2022-08-28T09:23:00.400Z,20.70
2022-08-28T09:25:44.292Z,20.91
2022-08-28T09:28:17.177Z,20.93
2022-08-28T09:30:52.010Z,20.29
2022-08-28T09:33:29.269Z,20.13
2022-08-28T09:35:56.136Z,19.77
2022-08-28T09:38:27.780Z,19.95
2022-08-28T09:41:29.313Z,20.01
2022-08-28T09:43:56.904Z,19.86
2022-08-28T09:46:31.933Z,19.88
2022-08-28T09:49:12.065Z,19.89
2022-08-28T09:51:40.386Z,19.87
2022-08-28T09:54:22.126Z,19.75
2022-08-28T09:56:49.772Z,19.55
2022-08-28T09:59:23.202Z,19.85
2022-08-28T10:02:03.723Z,20.15
2022-08-28T10:04:57.952Z,20.31
2022-08-28T10:07:57.919Z,20.41
2022-08-28T10:10:40.796Z,20.20
2022-08-28T10:13:24.021Z,20.08
2022-08-28T10:16:18.145Z,20.05
2022-08-28T10:18:55.124Z,20.03
2022-08-28T10:21:38.664Z,19.95
2022-08-28T10:24:24.775Z,20.18
2022-08-28T10:27:23.685Z,20.23
2022-08-28T10:30:12.366Z,20.48
2022-08-28T10:57:42.741Z,21.20
2022-08-28T11:00:13.650Z,21.33
2022-08-28T11:03:03.455Z,21.60
2022-08-28T11:05:53.595Z,21.67
2022-08-28T11:08:34.067Z,21.85
2022-08-28T11:11:03.710Z,21.77
2022-08-28T11:13:57.132Z,21.25
2022-08-28T11:16:38.914Z,21.10
2022-08-28T11:19:38.679Z,21.05
2022-08-28T11:22:16.991Z,21.47
2022-08-28T11:25:26.624Z,21.82
2022-08-28T11:28:23.761Z,22.17
2022-08-28T11:31:10.599Z,22.33
2022-08-28T11:33:53.067Z,22.28
2022-08-28T11:36:19.987Z,22.67
2022-08-28T11:38:55.776Z,22.54
2022-08-28T11:41:27.903Z,22.05
2022-08-28T11:44:10.758Z,21.86
2022-08-28T11:46:47.544Z,21.73
2022-08-28T11:49:34.514Z,21.74
2022-08-28T11:52:36.553Z,21.91
2022-08-28T11:55:25.528Z,21.71
2022-08-28T12:01:02.803Z,22.05
2022-08-28T12:03:57.582Z,21.92
2022-08-28T12:06:49.895Z,22.23
2022-08-28T12:09:25.962Z,22.67
2022-08-28T12:11:56.523Z,22.73
2022-08-28T12:14:26.240Z,22.86
2022-08-28T12:17:26.866Z,23.14
2022-08-28T12:20:12.932Z,23.24
2022-08-28T12:22:47.457Z,23.05
2022-08-28T12:25:30.151Z,22.82
2022-08-28T12:28:02.401Z,22.71
2022-08-28T12:30:33.290Z,22.66
2022-08-28T12:33:15.114Z,22.59
2022-08-28T12:35:43.794Z,22.08
2022-08-28T12:38:20.374Z,21.82
2022-08-28T12:40:50.815Z,21.95
2022-08-28T12:43:27.757Z,22.40
2022-08-28T12:46:19.654Z,22.42
2022-08-28T12:48:54.242Z,22.88
2022-08-28T12:51:22.644Z,23.00
2022-08-28T12:53:59.000Z,22.80
2022-08-28T12:56:32.611Z,22.56
2022-08-28T12:59:27.033Z,22.83
2022-08-28T13:01:54.863Z,23.19
2022-08-28T13:04:31.623Z,23.06
2022-08-28T13:07:08.052Z,22.52
2022-08-28T13:09:35.301Z,22.36
2022-08-28T13:12:02.827Z,22.48
2022-08-28T13:14:38.670Z,22.44
2022-08-28T13:17:06.244Z,22.48
2022-08-28T13:19:34.411Z,23.18
2022-08-28T13:22:08.266Z,23.48
2022-08-28T13:24:35.107Z,23.53
2022-08-28T13:27:14.208Z,23.17
2022-08-28T13:29:57.129Z,23.06
2022-08-28T13:32:28.312Z,22.74
2022-08-28T13:35:06.914Z,22.51
2022-08-28T13:37:49.782Z,22.60
2022-08-28T13:40:53.200Z,22.88
2022-08-28T13:43:16.128Z,23.11
2022-08-28T13:45:46.788Z,22.92
2022-08-28T13:48:16.087Z,22.67
2022-08-28T13:50:49.941Z,23.06
2022-08-28T13:53:20.170Z,23.15
2022-08-28T13:55:53.156Z,23.08
2022-08-28T13:58:23.448Z,23.05
2022-08-28T14:00:51.454Z,22.84
2022-08-28T14:03:38.539Z,22.87
2022-08-28T14:06:12.542Z,22.68
2022-08-28T14:08:42.098Z,22.51
2022-08-28T14:11:12.904Z,22.52
2022-08-28T14:13:55.688Z,22.63
2022-08-28T14:16:25.128Z,22.45
2022-08-28T14:18:53.188Z,22.43
2022-08-28T14:21:21.042Z,22.32
2022-08-28T14:23:47.882Z,22.46
2022-08-28T14:26:14.832Z,22.56
2022-08-28T14:28:42.365Z,22.85
2022-08-28T14:31:14.770Z,23.10
2022-08-28T14:33:45.355Z,23.35
2022-08-28T14:36:22.945Z,23.59
2022-08-28T14:38:54.015Z,23.71
2022-08-28T14:41:26.364Z,23.53
2022-08-28T14:43:54.791Z,23.45
2022-08-28T14:46:28.746Z,23.22
2022-08-28T14:49:01.506Z,23.05
2022-08-28T14:51:31.353Z,22.89
2022-08-28T14:53:59.974Z,22.79
2022-08-28T14:56:28.887Z,22.60
2022-08-28T14:59:00.836Z,22.57
2022-08-28T15:01:40.662Z,22.47
2022-08-28T15:04:11.626Z,22.51
2022-08-28T15:06:39.746Z,22.27
2022-08-28T15:09:06.637Z,22.34
2022-08-28T15:11:35.407Z,22.54
2022-08-28T15:16:36.357Z,22.54
2022-08-28T15:19:04.225Z,22.54
2022-08-28T15:21:38.443Z,22.47
2022-08-28T15:24:07.606Z,22.43
2022-08-28T15:26:34.599Z,22.42
2022-08-28T15:29:11.942Z,22.43
2022-08-28T15:31:42.472Z,22.63
2022-08-28T15:34:14.182Z,22.72
2022-08-28T15:36:54.514Z,22.62
2022-08-28T15:39:43.996Z,22.41
2022-08-28T15:42:11.587Z,22.23
2022-08-28T15:44:39.066Z,22.32
2022-08-28T15:47:07.000Z,22.25
2022-08-28T15:49:43.382Z,22.22
2022-08-28T15:52:15.644Z,22.12
2022-08-28T15:54:43.310Z,21.99
2022-08-28T15:57:10.680Z,22.00
2022-08-28T15:59:48.610Z,21.98
2022-08-28T16:02:19.308Z,21.86
2022-08-28T16:04:46.192Z,21.83
2022-08-28T16:07:13.311Z,21.99
2022-08-28T16:09:40.382Z,21.89
2022-08-28T16:12:07.427Z,22.08
2022-08-28T16:14:34.478Z,21.86
2022-08-28T16:17:06.059Z,21.95
2022-08-28T16:19:40.745Z,21.73
2022-08-28T16:22:09.735Z,21.78
2022-08-28T16:24:37.019Z,21.83
2022-08-28T16:27:04.419Z,22.11
2022-08-28T16:29:34.364Z,22.17
2022-08-28T16:32:04.471Z,22.25
2022-08-28T16:34:35.386Z,22.39
2022-08-28T16:37:04.074Z,22.35
2022-08-28T16:39:31.016Z,22.37
2022-08-28T16:41:57.919Z,22.48
2022-08-28T16:44:28.926Z,22.26
2022-08-28T16:46:56.140Z,22.43
2022-08-28T16:49:26.697Z,22.31
2022-08-28T16:51:54.603Z,22.13
2022-08-28T16:54:22.163Z,22.17
2022-08-28T16:56:49.210Z,22.08
2022-08-28T16:59:23.279Z,21.79
2022-08-28T17:01:53.067Z,21.66
2022-08-28T17:04:22.367Z,21.40
2022-08-28T17:06:49.339Z,21.40
2022-08-28T17:09:16.739Z,21.02
2022-08-28T17:11:51.647Z,21.17
2022-08-28T17:14:21.006Z,21.08
2022-08-28T17:16:48.360Z,20.91
2022-08-28T17:19:15.814Z,20.87
2022-08-28T17:22:09.541Z,20.71
2022-08-28T17:24:39.990Z,20.67
2022-08-28T17:27:07.593Z,20.79
2022-08-28T17:29:36.558Z,20.82
2022-08-28T17:32:05.305Z,20.71
2022-08-28T17:34:32.056Z,20.56
2022-08-28T17:36:59.001Z,20.52
2022-08-28T17:39:26.015Z,20.41
2022-08-28T17:41:52.898Z,20.30
2022-08-28T17:44:21.657Z,20.13
2022-08-28T17:46:48.453Z,20.14
2022-08-28T17:49:15.227Z,19.90
2022-08-28T17:51:44.099Z,19.81
2022-08-28T17:54:21.514Z,19.78
2022-08-28T17:56:49.343Z,19.83
2022-08-28T17:59:16.415Z,19.74
2022-08-28T18:01:45.005Z,19.54
2022-08-28T18:04:12.605Z,19.50
2022-08-28T18:06:43.367Z,19.38
2022-08-28T18:09:15.540Z,19.29
2022-08-28T18:11:44.655Z,19.26
2022-08-28T18:14:11.858Z,19.15
2022-08-28T18:16:41.086Z,19.17
2022-08-28T18:19:10.329Z,18.96
2022-08-28T18:21:38.911Z,18.89
2022-08-28T18:24:07.230Z,18.80
2022-08-28T18:26:34.120Z,18.76
2022-08-28T18:29:01.053Z,18.70
2022-08-28T18:31:31.355Z,18.58
2022-08-28T18:33:59.748Z,18.55
2022-08-28T18:36:27.168Z,18.51
2022-08-28T18:38:54.075Z,18.38
2022-08-28T18:41:21.270Z,18.33
2022-08-28T18:43:55.981Z,18.33
2022-08-28T18:46:25.283Z,18.23
2022-08-28T18:48:55.523Z,18.18
2022-08-28T18:51:22.498Z,18.15
2022-08-28T18:53:52.162Z,18.22
2022-08-28T18:56:19.262Z,18.03
2022-08-28T18:58:47.875Z,18.00
2022-08-28T19:01:16.035Z,18.05
2022-08-28T19:03:43.112Z,17.89
2022-08-28T19:06:13.348Z,17.84
2022-08-28T19:08:40.569Z,17.80
2022-08-28T19:11:14.268Z,17.81
2022-08-28T19:13:41.780Z,17.67
2022-08-28T19:16:09.638Z,17.59
2022-08-28T19:18:36.613Z,17.42
2022-08-28T19:21:16.314Z,17.57
2022-08-28T19:23:45.411Z,17.58
2022-08-28T19:26:23.124Z,17.43
2022-08-28T19:28:50.692Z,17.35
2022-08-28T19:31:18.326Z,17.23
2022-08-28T19:33:46.829Z,17.15
2022-08-28T19:36:14.328Z,17.14
2022-08-28T19:38:41.380Z,17.02
2022-08-28T19:41:10.235Z,17.11
2022-08-28T19:43:43.071Z,17.08
2022-08-28T19:46:18.587Z,17.11
2022-08-28T19:48:50.322Z,17.05
2022-08-28T19:51:22.375Z,16.94
2022-08-28T19:53:57.980Z,16.98
2022-08-28T19:56:32.421Z,16.88
2022-08-28T19:59:01.757Z,16.81
2022-08-28T20:01:31.475Z,16.87
2022-08-28T20:04:00.381Z,16.85
2022-08-28T20:06:30.339Z,16.81
2022-08-28T20:09:00.759Z,16.82
2022-08-28T20:11:30.371Z,16.58
2022-08-28T20:14:04.125Z,16.54
2022-08-28T20:16:34.596Z,16.54
2022-08-28T20:19:05.179Z,16.56
2022-08-28T20:21:37.121Z,16.48
2022-08-28T20:24:10.601Z,16.40
2022-08-28T20:26:37.781Z,16.52
2022-08-28T20:29:09.510Z,16.43
2022-08-28T20:31:40.515Z,16.35
2022-08-28T20:34:09.808Z,16.30
2022-08-28T20:36:36.727Z,16.20
2022-08-28T20:39:12.579Z,16.22
2022-08-28T20:41:41.698Z,16.25
2022-08-28T20:44:10.873Z,16.34
2022-08-28T20:46:41.256Z,16.28
2022-08-28T20:49:12.540Z,16.14
2022-08-28T20:51:52.820Z,16.06
2022-08-28T20:54:21.570Z,16.09
2022-08-28T20:56:49.493Z,16.03
2022-08-28T20:59:16.880Z,15.90
2022-08-28T21:01:43.715Z,15.88
2022-08-28T21:04:13.529Z,15.89
2022-08-28T21:06:40.245Z,15.81
2022-08-28T21:09:06.994Z,15.90
2022-08-28T21:11:36.998Z,15.78
2022-08-28T21:14:07.008Z,15.85
2022-08-28T21:16:38.011Z,15.85
2022-08-28T21:19:15.875Z,15.77
2022-08-28T21:21:44.077Z,15.64
2022-08-28T21:24:13.221Z,15.57
2022-08-28T21:26:50.420Z,15.53
2022-08-28T21:29:20.940Z,15.60
2022-08-28T21:31:50.707Z,15.65
2022-08-28T21:34:18.747Z,15.62
2022-08-28T21:36:50.262Z,15.47
2022-08-28T21:39:20.674Z,15.42
2022-08-28T21:41:48.612Z,15.40
2022-08-28T21:44:15.936Z,15.40
2022-08-28T21:46:42.647Z,15.44
2022-08-28T21:49:09.948Z,15.35
2022-08-28T21:51:37.000Z,15.37
2022-08-28T21:54:03.866Z,15.30
2022-08-28T21:56:31.177Z,15.26
2022-08-28T21:58:58.164Z,15.15
2022-08-28T22:01:26.529Z,15.09
2022-08-28T22:03:55.514Z,15.12
2022-08-28T22:06:24.015Z,15.07
2022-08-28T22:08:51.998Z,15.15
2022-08-28T22:11:24.875Z,15.16
2022-08-28T22:13:53.777Z,15.21
2022-08-28T22:16:21.473Z,15.11
2022-08-28T22:18:48.425Z,14.97
2022-08-28T22:21:36.445Z,14.97
2022-08-28T22:24:03.643Z,14.94
2022-08-28T22:26:30.376Z,15.09
2022-08-28T22:28:58.187Z,14.91
2022-08-28T22:31:25.125Z,14.95
2022-08-28T22:33:52.497Z,14.90
2022-08-28T22:36:20.782Z,14.90
2022-08-28T22:38:50.480Z,14.80
2022-08-28T22:41:20.659Z,14.73
2022-08-28T22:43:49.690Z,14.74
2022-08-28T22:46:18.902Z,14.63
2022-08-28T22:48:46.152Z,14.71
2022-08-28T22:51:15.669Z,14.77
2022-08-28T22:53:43.735Z,14.78
2022-08-28T22:56:11.768Z,14.72
2022-08-28T22:58:39.685Z,14.62
2022-08-28T23:01:13.430Z,14.60
2022-08-28T23:03:41.043Z,14.52
2022-08-28T23:06:08.004Z,14.56
2022-08-28T23:08:35.385Z,14.65
2022-08-28T23:11:02.574Z,14.66
2022-08-28T23:13:30.097Z,14.66
2022-08-28T23:15:57.267Z,14.61
2022-08-28T23:18:25.036Z,14.53
2022-08-28T23:20:52.537Z,14.44
2022-08-28T23:23:19.539Z,14.27
2022-08-28T23:25:47.116Z,14.34
2022-08-28T23:28:13.782Z,14.43
2022-08-28T23:30:48.279Z,14.24
2022-08-28T23:33:23.764Z,14.28
2022-08-28T23:35:52.258Z,14.28
2022-08-28T23:38:19.456Z,14.48
2022-08-28T23:40:48.272Z,14.27
2022-08-28T23:43:20.890Z,14.27
2022-08-28T23:45:48.469Z,14.10
2022-08-28T23:48:15.497Z,14.10
2022-08-28T23:50:43.492Z,14.02
2022-08-28T23:53:10.631Z,13.97
2022-08-28T23:55:38.745Z,13.96
2022-08-28T23:58:06.785Z,13.84
